Time;durP1;ratioP1;P1;durP2;ratioP2;P2;SDS_P1;SDS_P2;PMS_P1;PMS_P2;Temp;Humidity;BMP_temperature;BMP_pressure;BME280_temperature;BME280_humidity;BME280_pressure;Samples;Min_cycle;Max_cycle;Signal;HPM_P1;HPM_P2
2023/10/27 00:01:21;;;;;;;85.25;80.25;;;13.80;99.90;;;;;;4971375;28;20031;-70
2023/10/27 00:03:47;;;;;;;86.07;81.40;;;13.80;99.90;;;;;;4971971;28;20050;-71
2023/10/27 00:06:14;;;;;;;96.90;91.15;;;13.80;99.90;;;;;;4962954;28;20039;-70
2023/10/27 00:08:40;;;;;;;95.28;89.65;;;13.80;99.90;;;;;;4965608;28;20645;-70
2023/10/27 00:11:06;;;;;;;85.53;80.07;;;13.80;99.90;;;;;;4961876;28;20043;-70
2023/10/27 00:13:32;;;;;;;97.60;91.97;;;13.80;99.90;;;;;;4965759;28;20399;-70
2023/10/27 00:15:58;;;;;;;97.30;91.60;;;13.80;99.90;;;;;;4953257;28;20043;-70
2023/10/27 00:18:24;;;;;;;94.15;87.82;;;13.80;99.90;;;;;;4967441;28;20391;-70
2023/10/27 00:20:50;;;;;;;87.80;81.82;;;13.80;99.90;;;;;;4965581;28;20039;-71
2023/10/27 00:23:17;;;;;;;83.30;78.22;;;13.80;99.90;;;;;;4984725;28;20389;-70
2023/10/27 00:25:43;;;;;;;81.13;75.55;;;13.80;99.90;;;;;;4957882;28;20035;-70
2023/10/27 00:28:09;;;;;;;79.38;74.07;;;13.80;99.90;;;;;;4978050;28;20174;-70
2023/10/27 00:30:36;;;;;;;81.28;75.75;;;13.80;99.90;;;;;;4965333;28;20030;-71
2023/10/27 00:33:02;;;;;;;75.30;70.28;;;13.80;99.90;;;;;;4971504;28;20070;-70
2023/10/27 00:35:28;;;;;;;74.18;68.93;;;13.80;99.90;;;;;;4964919;28;20035;-70
2023/10/27 00:37:54;;;;;;;75.10;70.53;;;13.80;99.90;;;;;;4956469;28;20492;-70
2023/10/27 00:40:21;;;;;;;82.28;77.15;;;13.70;99.90;;;;;;4966883;28;20487;-70
2023/10/27 00:42:47;;;;;;;83.93;78.82;;;13.60;99.90;;;;;;4970250;28;20392;-70
2023/10/27 00:45:13;;;;;;;85.93;80.07;;;13.60;99.90;;;;;;4956813;28;20032;-70
2023/10/27 00:47:39;;;;;;;73.18;67.78;;;13.50;99.90;;;;;;4955922;28;20038;-70
2023/10/27 00:50:05;;;;;;;73.80;68.57;;;13.60;99.90;;;;;;4954335;28;20035;-70
2023/10/27 00:52:31;;;;;;;77.18;71.53;;;13.60;99.90;;;;;;4961010;28;20405;-70
2023/10/27 00:54:57;;;;;;;77.30;72.07;;;13.60;99.90;;;;;;4966359;28;20028;-70
2023/10/27 00:57:23;;;;;;;81.07;75.70;;;13.60;99.90;;;;;;4944116;29;20507;-70
2023/10/27 00:59:53;;;;;;;71.40;66.47;;;13.60;99.90;;;;;;4963421;28;20046;-71
2023/10/27 01:02:21;;;;;;;75.43;70.90;;;13.60;99.90;;;;;;4955370;28;20047;-70
2023/10/27 01:04:47;;;;;;;84.28;78.55;;;13.70;99.90;;;;;;4971716;28;20023;-70
2023/10/27 01:07:13;;;;;;;80.43;75.03;;;13.70;99.90;;;;;;4967597;28;20055;-70
2023/10/27 01:09:39;;;;;;;86.88;80.47;;;13.70;99.90;;;;;;4967230;28;20059;-70
2023/10/27 01:12:06;;;;;;;82.45;76.38;;;13.70;99.90;;;;;;4954406;28;20035;-70
2023/10/27 01:14:32;;;;;;;79.22;73.15;;;13.70;99.90;;;;;;4968259;28;20062;-70
2023/10/27 01:16:58;;;;;;;88.13;81.35;;;13.70;99.90;;;;;;4955622;28;20050;-70
2023/10/27 01:19:24;;;;;;;97.20;90.32;;;13.70;99.90;;;;;;4968186;28;20112;-70
2023/10/27 01:21:50;;;;;;;94.65;88.13;;;13.70;99.90;;;;;;4961966;28;20035;-70
2023/10/27 01:24:16;;;;;;;87.97;82.30;;;13.60;99.90;;;;;;4963860;28;20030;-70
2023/10/27 01:26:42;;;;;;;90.05;83.60;;;13.60;99.90;;;;;;4963697;28;20031;-70
2023/10/27 01:29:08;;;;;;;95.18;88.72;;;13.60;99.90;;;;;;4955403;28;20039;-70
2023/10/27 01:31:34;;;;;;;91.38;84.43;;;13.60;99.90;;;;;;4956360;28;20039;-70
2023/10/27 01:34:00;;;;;;;89.03;82.78;;;13.60;99.90;;;;;;4972595;28;20070;-70
2023/10/27 01:36:26;;;;;;;87.82;82.00;;;13.70;99.90;;;;;;4965667;28;20038;-71
2023/10/27 01:38:53;;;;;;;83.95;78.00;;;13.70;99.90;;;;;;4990240;28;20035;-70
2023/10/27 01:41:19;;;;;;;73.15;67.93;;;13.70;99.90;;;;;;4988846;28;20039;-70
2023/10/27 01:43:45;;;;;;;61.17;56.72;;;13.60;99.90;;;;;;4975136;28;20039;-70
2023/10/27 01:46:11;;;;;;;62.83;57.72;;;13.60;99.90;;;;;;4982245;28;20400;-70
2023/10/27 01:48:37;;;;;;;57.45;53.00;;;13.70;99.90;;;;;;4968591;28;20045;-70
2023/10/27 01:51:03;;;;;;;58.03;53.88;;;13.70;99.90;;;;;;4968464;28;20381;-70
2023/10/27 01:53:31;;;;;;;52.78;48.85;;;13.70;99.90;;;;;;4965858;28;20530;-70
2023/10/27 01:55:57;;;;;;;59.85;55.90;;;13.70;99.90;;;;;;4967187;28;20031;-70
2023/10/27 01:58:27;;;;;;;64.55;59.63;;;13.70;99.90;;;;;;4974246;28;20498;-70
2023/10/27 02:00:53;;;;;;;65.65;60.90;;;13.60;99.90;;;;;;4972877;28;20043;-70
2023/10/27 02:03:19;;;;;;;70.43;65.07;;;13.60;99.90;;;;;;4972317;28;20392;-70
2023/10/27 02:05:46;;;;;;;65.55;60.75;;;13.60;99.90;;;;;;4963177;28;20047;-70
2023/10/27 02:08:13;;;;;;;64.15;59.72;;;13.60;99.90;;;;;;4960564;28;20057;-70
2023/10/27 02:10:39;;;;;;;68.85;64.22;;;13.60;99.90;;;;;;4971925;28;20034;-71
2023/10/27 02:13:05;;;;;;;84.63;79.03;;;13.50;99.90;;;;;;4973887;28;20407;-70
2023/10/27 02:15:32;;;;;;;86.45;80.13;;;13.50;99.90;;;;;;4970038;28;20035;-71
2023/10/27 02:17:58;;;;;;;72.93;67.63;;;13.50;99.90;;;;;;4954994;28;20039;-71
2023/10/27 02:20:24;;;;;;;75.38;70.63;;;13.40;99.90;;;;;;4966418;28;20469;-70
2023/10/27 02:22:50;;;;;;;77.80;72.32;;;13.50;99.90;;;;;;4962371;28;20030;-70
2023/10/27 02:25:16;;;;;;;74.57;69.35;;;13.40;99.90;;;;;;4959945;28;20388;-70
2023/10/27 02:27:43;;;;;;;75.95;71.10;;;13.50;99.90;;;;;;4963629;28;20495;-70
2023/10/27 02:30:09;;;;;;;70.60;65.93;;;13.50;99.90;;;;;;4963426;28;20488;-70
2023/10/27 02:32:35;;;;;;;84.22;78.63;;;13.50;99.90;;;;;;4967354;28;20039;-70
2023/10/27 02:35:01;;;;;;;85.03;79.55;;;13.50;99.90;;;;;;4959590;28;20034;-70
2023/10/27 02:37:27;;;;;;;84.35;79.00;;;13.50;99.90;;;;;;4971152;28;20046;-70
2023/10/27 02:39:53;;;;;;;76.63;71.32;;;13.50;99.90;;;;;;4956784;28;20039;-70
2023/10/27 02:42:20;;;;;;;60.47;55.95;;;13.50;99.90;;;;;;4956656;28;20042;-70
2023/10/27 02:44:46;;;;;;;68.32;63.97;;;13.50;99.90;;;;;;4962455;28;20504;-70
2023/10/27 02:47:12;;;;;;;50.55;46.92;;;13.50;99.90;;;;;;4963053;28;20040;-70
2023/10/27 02:49:38;;;;;;;58.22;54.05;;;13.50;99.90;;;;;;4971347;28;20443;-70
2023/10/27 02:52:05;;;;;;;60.47;56.03;;;13.50;99.90;;;;;;4963704;28;20043;-70
2023/10/27 02:54:31;;;;;;;53.83;50.58;;;13.50;99.90;;;;;;4974024;28;20039;-70
2023/10/27 02:56:57;;;;;;;44.95;41.65;;;13.50;99.90;;;;;;4962049;28;20027;-70
2023/10/27 02:59:23;;;;;;;48.67;44.85;;;13.50;99.90;;;;;;4960798;28;20054;-70
2023/10/27 03:01:51;;;;;;;47.83;43.83;;;13.50;99.90;;;;;;4966851;28;20411;-70
2023/10/27 03:04:19;;;;;;;46.40;43.10;;;13.50;99.90;;;;;;4956152;28;20453;-70
2023/10/27 03:06:45;;;;;;;43.03;39.92;;;13.40;99.90;;;;;;4962564;28;20050;-70
2023/10/27 03:09:11;;;;;;;45.63;41.60;;;13.50;99.90;;;;;;4989132;28;20364;-70
2023/10/27 03:11:37;;;;;;;47.25;43.80;;;13.50;99.90;;;;;;4972329;28;20026;-70
2023/10/27 03:14:03;;;;;;;45.35;41.88;;;13.40;99.90;;;;;;4971537;28;20051;-69
2023/10/27 03:16:29;;;;;;;47.20;43.58;;;13.40;99.90;;;;;;4964593;28;20051;-70
2023/10/27 03:18:55;;;;;;;51.75;47.67;;;13.40;99.90;;;;;;4972376;28;20150;-70
2023/10/27 03:21:22;;;;;;;44.60;40.92;;;13.50;99.90;;;;;;4962982;28;20388;-69
2023/10/27 03:23:48;;;;;;;47.42;43.90;;;13.40;99.90;;;;;;4958766;28;20039;-70
2023/10/27 03:26:14;;;;;;;44.28;40.85;;;13.40;99.90;;;;;;4967737;28;20502;-70
2023/10/27 03:28:42;;;;;;;39.30;35.95;;;13.40;99.90;;;;;;4969890;28;20039;-69
2023/10/27 03:31:09;;;;;;;47.28;43.33;;;13.50;99.90;;;;;;4956615;28;20058;-70
2023/10/27 03:33:35;;;;;;;82.05;76.57;;;13.50;99.90;;;;;;4969138;28;20039;-70
2023/10/27 03:36:01;;;;;;;111.40;103.97;;;13.50;99.90;;;;;;4956568;28;20027;-70
2023/10/27 03:38:27;;;;;;;101.40;94.65;;;13.60;99.90;;;;;;4961225;28;20031;-70
2023/10/27 03:40:54;;;;;;;119.50;112.32;;;13.50;99.90;;;;;;4954454;28;20038;-70
2023/10/27 03:43:20;;;;;;;105.65;98.90;;;13.60;99.90;;;;;;4954990;28;20054;-69
2023/10/27 03:45:46;;;;;;;107.15;99.85;;;13.50;99.90;;;;;;4955328;28;20031;-70
2023/10/27 03:48:14;;;;;;;129.13;120.93;;;13.50;99.90;;;;;;4958375;28;20028;-70
2023/10/27 03:50:40;;;;;;;90.30;84.28;;;13.50;99.90;;;;;;4957157;28;20030;-68
2023/10/27 03:53:06;;;;;;;88.75;82.50;;;13.50;99.90;;;;;;4969047;28;20449;-70
2023/10/27 03:55:32;;;;;;;95.40;89.28;;;13.50;99.90;;;;;;4962248;28;20388;-70
2023/10/27 03:58:15;;;;;;;106.15;98.07;;;13.50;99.90;;;;;;4969001;28;20039;-70
2023/10/27 04:00:41;;;;;;;95.25;88.53;;;13.40;99.90;;;;;;4965811;28;20043;-70
2023/10/27 04:03:07;;;;;;;93.28;86.65;;;13.40;99.90;;;;;;4954163;28;20492;-70
2023/10/27 04:05:33;;;;;;;92.03;86.38;;;13.40;99.90;;;;;;4971371;28;20030;-70
2023/10/27 04:07:59;;;;;;;95.20;88.88;;;13.40;99.90;;;;;;4972414;28;20034;-70
2023/10/27 04:10:25;;;;;;;89.15;82.63;;;13.50;99.90;;;;;;4971850;28;20042;-69
2023/10/27 04:12:51;;;;;;;92.90;86.47;;;13.50;99.90;;;;;;4972673;28;20038;-70
2023/10/27 04:15:18;;;;;;;88.57;82.63;;;13.50;99.90;;;;;;4969202;28;20058;-70
2023/10/27 04:17:44;;;;;;;83.85;77.53;;;13.60;99.90;;;;;;4972980;28;20413;-71
2023/10/27 04:20:10;;;;;;;69.15;63.67;;;13.60;99.90;;;;;;4969188;28;20035;-71
2023/10/27 04:22:36;;;;;;;70.10;64.05;;;13.60;99.90;;;;;;4962791;28;20035;-71
2023/10/27 04:25:03;;;;;;;74.68;69.53;;;13.50;99.90;;;;;;4971373;28;20057;-71
2023/10/27 04:27:29;;;;;;;65.85;60.63;;;13.50;99.90;;;;;;4968407;28;20030;-70
2023/10/27 04:29:56;;;;;;;71.10;65.13;;;13.50;99.90;;;;;;4959192;28;20024;-71
2023/10/27 04:32:22;;;;;;;88.78;82.38;;;13.40;99.90;;;;;;4957757;28;20034;-70
2023/10/27 04:34:48;;;;;;;86.80;80.68;;;13.40;99.90;;;;;;4965556;28;20524;-71
2023/10/27 04:37:14;;;;;;;75.93;70.95;;;13.50;99.90;;;;;;4955525;28;20043;-71
2023/10/27 04:39:40;;;;;;;84.47;78.53;;;13.40;99.90;;;;;;4959336;28;20066;-71
2023/10/27 04:42:07;;;;;;;75.05;69.35;;;13.50;99.90;;;;;;4963125;28;20038;-70
2023/10/27 04:44:33;;;;;;;66.63;61.70;;;13.40;99.90;;;;;;4961918;28;20086;-71
2023/10/27 04:46:59;;;;;;;69.78;64.55;;;13.40;99.90;;;;;;4968872;28;20031;-71
2023/10/27 04:49:26;;;;;;;55.60;51.05;;;13.50;99.90;;;;;;4970714;28;20050;-71
2023/10/27 04:51:52;;;;;;;50.97;46.83;;;13.50;99.90;;;;;;4966969;28;20471;-71
2023/10/27 04:54:18;;;;;;;54.65;48.95;;;13.50;99.90;;;;;;4971082;28;20050;-71
2023/10/27 04:56:44;;;;;;;52.30;48.22;;;13.40;99.90;;;;;;4960647;28;20039;-71
2023/10/27 04:59:10;;;;;;;49.33;45.90;;;13.40;99.90;;;;;;4966164;28;20046;-71
2023/10/27 05:01:36;;;;;;;52.80;48.42;;;13.40;99.90;;;;;;4959203;28;20484;-71
2023/10/27 05:04:03;;;;;;;51.00;47.08;;;13.40;99.90;;;;;;4958508;28;20066;-71
2023/10/27 05:06:30;;;;;;;55.17;51.00;;;13.40;99.90;;;;;;4966801;28;20034;-71
2023/10/27 05:08:56;;;;;;;54.60;50.40;;;13.40;99.90;;;;;;4969101;28;20039;-71
2023/10/27 05:11:23;;;;;;;50.28;46.60;;;13.40;99.90;;;;;;4959143;28;20404;-70
2023/10/27 05:13:49;;;;;;;53.70;49.50;;;13.40;99.90;;;;;;4965114;28;20042;-71
2023/10/27 05:16:15;;;;;;;51.80;47.30;;;13.30;99.90;;;;;;4967865;28;20065;-71
2023/10/27 05:18:41;;;;;;;52.25;47.60;;;13.30;99.90;;;;;;4961992;28;20423;-70
2023/10/27 05:21:15;;;;;;;55.22;50.17;;;13.30;99.90;;;;;;4968556;28;20039;-71
2023/10/27 05:23:42;;;;;;;54.63;49.72;;;13.30;99.90;;;;;;4958624;28;20050;-71
2023/10/27 05:26:08;;;;;;;55.85;51.30;;;13.30;99.90;;;;;;4961220;28;20642;-71
2023/10/27 05:28:34;;;;;;;59.15;54.35;;;13.30;99.90;;;;;;4959013;28;20034;-71
2023/10/27 05:31:00;;;;;;;52.30;48.40;;;13.30;99.90;;;;;;4959930;28;20583;-71
2023/10/27 05:33:26;;;;;;;57.28;52.88;;;13.30;99.90;;;;;;4955008;28;20043;-71
2023/10/27 05:35:52;;;;;;;64.85;57.78;;;13.30;99.90;;;;;;4969729;28;20436;-71
2023/10/27 05:38:18;;;;;;;66.55;61.42;;;13.30;99.90;;;;;;4967822;28;20039;-71
2023/10/27 05:40:44;;;;;;;64.38;58.92;;;13.30;99.90;;;;;;4968862;28;20391;-71
2023/10/27 05:43:12;;;;;;;71.45;65.68;;;13.30;99.90;;;;;;4974552;28;20042;-71
2023/10/27 05:45:38;;;;;;;66.18;61.28;;;13.30;99.90;;;;;;4967363;28;20043;-71
2023/10/27 05:48:05;;;;;;;69.05;63.05;;;13.30;99.90;;;;;;4960952;28;20496;-71
2023/10/27 05:50:31;;;;;;;66.57;61.42;;;13.30;99.90;;;;;;4970267;28;20037;-71
2023/10/27 05:52:57;;;;;;;62.10;57.10;;;13.30;99.90;;;;;;4975969;28;20090;-71
2023/10/27 05:55:25;;;;;;;66.00;60.03;;;13.20;99.90;;;;;;4971482;28;20046;-71
2023/10/27 05:57:51;;;;;;;61.83;57.30;;;13.20;99.90;;;;;;4960233;28;20039;-71
2023/10/27 06:00:17;;;;;;;65.03;59.67;;;13.10;99.90;;;;;;4969416;28;20042;-71
2023/10/27 06:02:43;;;;;;;65.72;60.72;;;13.10;99.90;;;;;;4971792;28;20034;-70
2023/10/27 06:05:10;;;;;;;64.30;59.05;;;13.10;99.90;;;;;;4961759;28;20039;-71
2023/10/27 06:07:36;;;;;;;68.90;63.90;;;13.10;99.90;;;;;;4970331;28;20030;-71
2023/10/27 06:10:04;;;;;;;67.35;62.10;;;13.10;99.90;;;;;;4968533;28;20599;-71
2023/10/27 06:12:30;;;;;;;67.22;61.47;;;13.10;99.90;;;;;;4973010;28;20510;-71
2023/10/27 06:14:56;;;;;;;64.20;59.13;;;13.10;99.90;;;;;;4985721;28;20054;-71
2023/10/27 06:17:22;;;;;;;66.07;60.50;;;13.10;99.90;;;;;;4974446;28;20047;-70
2023/10/27 06:19:48;;;;;;;63.70;58.53;;;13.10;99.90;;;;;;4955850;28;20035;-71
2023/10/27 06:22:14;;;;;;;61.80;56.88;;;13.20;99.90;;;;;;4957119;28;20035;-71
2023/10/27 06:24:40;;;;;;;64.43;60.05;;;13.20;99.90;;;;;;4955907;29;20335;-70
2023/10/27 06:27:07;;;;;;;66.28;61.53;;;13.20;99.90;;;;;;4962751;28;20031;-71
2023/10/27 06:29:34;;;;;;;60.60;55.85;;;13.20;99.90;;;;;;4970352;28;20034;-71
2023/10/27 06:32:00;;;;;;;62.92;58.00;;;13.20;99.90;;;;;;4955563;28;20039;-71
2023/10/27 06:34:26;;;;;;;66.15;60.97;;;13.20;99.90;;;;;;4955552;28;20464;-72
2023/10/27 06:36:52;;;;;;;68.90;63.95;;;13.30;99.90;;;;;;4971742;28;20033;-71
2023/10/27 06:39:18;;;;;;;68.70;63.83;;;13.30;99.90;;;;;;4969595;28;20046;-72
2023/10/27 06:41:46;;;;;;;70.00;64.95;;;13.30;99.90;;;;;;4967565;28;20588;-71
2023/10/27 06:44:12;;;;;;;67.63;62.55;;;13.30;99.90;;;;;;4974222;28;20042;-71
2023/10/27 06:46:41;;;;;;;70.50;64.82;;;13.30;99.90;;;;;;4968229;28;20038;-73
2023/10/27 06:49:09;;;;;;;64.22;59.45;;;13.30;99.90;;;;;;4979647;28;20041;-73
2023/10/27 06:51:36;;;;;;;70.63;65.95;;;13.20;99.90;;;;;;4967658;28;20062;-71
2023/10/27 06:54:02;;;;;;;68.93;64.20;;;13.30;99.90;;;;;;4961957;28;20043;-70
2023/10/27 06:56:28;;;;;;;64.95;60.50;;;13.20;99.90;;;;;;4967570;28;20046;-71
2023/10/27 06:58:54;;;;;;;70.63;65.45;;;13.20;99.90;;;;;;4970533;28;20368;-71
2023/10/27 07:01:20;;;;;;;74.20;67.75;;;13.20;99.90;;;;;;4974410;28;20034;-71
2023/10/27 07:03:46;;;;;;;75.15;69.72;;;13.20;99.90;;;;;;4989443;28;20392;-71
2023/10/27 07:06:12;;;;;;;71.32;66.05;;;13.20;99.90;;;;;;4972891;28;20043;-71
2023/10/27 07:08:38;;;;;;;69.07;63.22;;;13.20;99.90;;;;;;4968324;28;20042;-71
2023/10/27 07:11:04;;;;;;;69.65;64.00;;;13.20;99.90;;;;;;4966597;28;20034;-71
2023/10/27 07:13:31;;;;;;;62.13;57.40;;;13.20;99.90;;;;;;4975671;28;20391;-71
2023/10/27 07:15:57;;;;;;;68.07;62.42;;;13.20;99.90;;;;;;4969050;28;20038;-71
2023/10/27 07:18:23;;;;;;;68.90;63.80;;;13.20;99.90;;;;;;4962632;28;20038;-71
2023/10/27 07:20:56;;;;;;;65.18;60.33;;;13.20;99.90;;;;;;4966946;28;20416;-71
2023/10/27 07:23:22;;;;;;;66.95;62.28;;;13.20;99.90;;;;;;4969248;28;20054;-71
2023/10/27 07:25:49;;;;;;;76.30;69.10;;;13.20;99.90;;;;;;4966204;28;20042;-71
2023/10/27 07:28:15;;;;;;;74.10;68.75;;;13.20;99.90;;;;;;4968867;28;20396;-71
2023/10/27 07:30:41;;;;;;;71.60;66.13;;;13.20;99.90;;;;;;4967210;28;20484;-71
2023/10/27 07:33:07;;;;;;;63.00;57.67;;;13.20;99.90;;;;;;4970832;28;20038;-71
2023/10/27 07:35:33;;;;;;;63.28;58.42;;;13.30;99.90;;;;;;4965566;28;20707;-71
2023/10/27 07:37:59;;;;;;;59.33;54.65;;;13.40;99.90;;;;;;4966116;28;20026;-72
2023/10/27 07:40:26;;;;;;;63.22;58.03;;;13.40;99.90;;;;;;4950852;28;20043;-71
2023/10/27 07:42:52;;;;;;;62.47;57.25;;;13.50;99.90;;;;;;4959128;28;20034;-71
2023/10/27 07:45:19;;;;;;;58.67;53.97;;;13.50;99.90;;;;;;4963962;28;20399;-71
2023/10/27 07:47:52;;;;;;;60.42;56.10;;;13.50;99.90;;;;;;4971931;28;20039;-71
2023/10/27 07:50:20;;;;;;;70.28;64.72;;;13.50;99.90;;;;;;4954176;28;20401;-71
2023/10/27 07:52:46;;;;;;;54.83;50.05;;;13.60;99.90;;;;;;4962882;28;20027;-71
2023/10/27 07:55:12;;;;;;;61.03;55.67;;;13.50;99.90;;;;;;4968071;28;20511;-71
2023/10/27 07:57:38;;;;;;;64.00;58.85;;;13.60;99.90;;;;;;4949537;28;20050;-72
2023/10/27 08:00:09;;;;;;;59.10;54.30;;;13.60;99.90;;;;;;4953218;28;20408;-69
2023/10/27 08:02:35;;;;;;;;;;;13.60;99.90;;;;;;4944749;28;20031;-72
2023/10/27 08:05:02;;;;;;;67.32;62.38;;;13.60;99.90;;;;;;4965376;28;19919;-72
2023/10/27 08:07:28;;;;;;;67.15;61.67;;;13.60;99.90;;;;;;4959743;28;20046;-71
2023/10/27 08:09:56;;;;;;;59.72;54.83;;;13.60;99.90;;;;;;4961693;28;20369;-72
2023/10/27 08:12:22;;;;;;;63.10;58.22;;;13.60;99.90;;;;;;4962392;28;20042;-72
2023/10/27 08:14:48;;;;;;;62.85;57.25;;;13.60;99.90;;;;;;4962648;28;20047;-71
2023/10/27 08:17:14;;;;;;;67.68;62.13;;;13.70;99.90;;;;;;4962502;28;20054;-71
2023/10/27 08:19:41;;;;;;;69.03;63.33;;;13.70;99.90;;;;;;4965194;28;20031;-72
2023/10/27 08:22:07;;;;;;;62.75;57.13;;;13.70;99.90;;;;;;4962240;28;20488;-72
2023/10/27 08:24:33;;;;;;;79.30;73.68;;;13.70;99.90;;;;;;4955496;28;20059;-73
2023/10/27 08:26:59;;;;;;;68.50;62.95;;;13.80;99.90;;;;;;4966336;28;20027;-73
2023/10/27 08:29:26;;;;;;;72.25;66.45;;;14.00;99.90;;;;;;4962435;28;20108;-72
2023/10/27 08:31:52;;;;;;;69.03;63.60;;;14.00;99.90;;;;;;4964797;28;20515;-73
2023/10/27 08:34:18;;;;;;;61.10;55.35;;;14.10;99.90;;;;;;4957585;28;20392;-74
2023/10/27 08:36:45;;;;;;;100.13;92.50;;;14.20;99.90;;;;;;4967753;28;20031;-67
2023/10/27 08:39:11;;;;;;;73.70;68.45;;;14.20;99.90;;;;;;4970594;28;20058;-67
2023/10/27 08:41:37;;;;;;;80.57;74.00;;;14.40;99.90;;;;;;4969994;28;20027;-67
2023/10/27 08:44:03;;;;;;;70.13;64.35;;;14.40;99.90;;;;;;4965608;28;20023;-68
2023/10/27 08:46:30;;;;;;;64.38;59.08;;;14.40;99.90;;;;;;4971070;28;20404;-73
2023/10/27 08:48:56;;;;;;;61.70;55.60;;;14.50;99.90;;;;;;4956155;29;20031;-72
2023/10/27 08:51:22;;;;;;;82.78;63.40;;;14.50;99.90;;;;;;4966638;28;20479;-72
2023/10/27 08:53:48;;;;;;;121.28;112.93;;;14.50;99.90;;;;;;4975587;28;20042;-72
2023/10/27 08:56:15;;;;;;;121.55;113.13;;;14.50;99.90;;;;;;4975022;28;20045;-72
2023/10/27 08:58:48;;;;;;;110.80;103.05;;;14.60;99.90;;;;;;4957775;28;20566;-72
2023/10/27 09:01:14;;;;;;;115.10;107.03;;;14.60;99.90;;;;;;4962874;28;20380;-72
2023/10/27 09:03:41;;;;;;;111.68;103.05;;;14.60;99.90;;;;;;4962068;28;20031;-72
2023/10/27 09:06:07;;;;;;;104.15;96.53;;;14.60;99.90;;;;;;4963119;28;20042;-72
2023/10/27 09:08:34;;;;;;;97.93;90.95;;;14.60;99.90;;;;;;4968036;28;20066;-72
2023/10/27 09:11:00;;;;;;;94.45;88.10;;;14.50;99.90;;;;;;4965926;28;20030;-74
2023/10/27 09:13:26;;;;;;;97.82;91.05;;;14.50;99.90;;;;;;4971521;28;20039;-74
2023/10/27 09:15:52;;;;;;;85.28;79.35;;;14.40;99.90;;;;;;4961547;28;20505;-72
2023/10/27 09:18:18;;;;;;;98.45;91.40;;;14.40;99.90;;;;;;4967491;28;20027;-72
2023/10/27 09:20:49;;;;;;;94.47;87.22;;;14.40;99.90;;;;;;4963372;28;20035;-72
2023/10/27 09:23:15;;;;;;;137.90;129.20;;;14.50;99.90;;;;;;4969027;28;20023;-71
2023/10/27 09:25:41;;;;;;;138.15;129.32;;;14.50;99.90;;;;;;4970505;28;20054;-73
2023/10/27 09:28:07;;;;;;;121.50;114.10;;;14.60;99.90;;;;;;4960481;28;20027;-73
2023/10/27 09:30:37;;;;;;;100.72;93.40;;;14.60;99.90;;;;;;4966498;28;20044;-74
2023/10/27 09:33:20;;;;;;;95.70;88.40;;;14.60;99.90;;;;;;4972591;28;20043;-74
2023/10/27 09:35:48;;;;;;;102.78;95.07;;;14.50;99.90;;;;;;4968812;28;20050;-74
2023/10/27 09:38:14;;;;;;;111.88;104.13;;;14.50;99.90;;;;;;4972147;28;20468;-74
2023/10/27 09:40:42;;;;;;;95.93;88.85;;;14.40;99.90;;;;;;4970752;28;20039;-73
2023/10/27 09:43:09;;;;;;;99.63;92.63;;;14.40;99.90;;;;;;4961969;28;20036;-74
2023/10/27 09:45:35;;;;;;;103.57;96.60;;;14.40;99.90;;;;;;4971762;28;20038;-73
2023/10/27 09:48:02;;;;;;;95.30;88.50;;;14.40;99.90;;;;;;4973079;28;20038;-74
2023/10/27 09:50:29;;;;;;;123.95;116.70;;;14.30;99.90;;;;;;4964738;28;20031;-74
2023/10/27 09:52:58;;;;;;;124.30;115.55;;;14.30;99.90;;;;;;4972590;28;20031;-73
2023/10/27 09:55:24;;;;;;;115.07;107.45;;;14.30;99.90;;;;;;4973359;28;20049;-73
2023/10/27 09:57:51;;;;;;;120.68;113.07;;;14.30;99.90;;;;;;4975625;28;20034;-74
2023/10/27 10:00:21;;;;;;;117.55;110.22;;;14.30;99.90;;;;;;4970271;28;20034;-74
2023/10/27 10:02:47;;;;;;;117.93;110.20;;;14.30;99.90;;;;;;4953639;28;20022;-74
2023/10/27 10:05:14;;;;;;;117.93;109.63;;;14.30;99.90;;;;;;4960918;28;20061;-74
2023/10/27 10:07:44;;;;;;;114.55;107.18;;;14.30;99.90;;;;;;4954681;29;20388;-74
2023/10/27 10:10:29;;;;;;;121.40;113.78;;;14.20;99.90;;;;;;4940380;28;20023;-74
2023/10/27 10:13:05;;;;;;;124.00;116.30;;;14.20;99.90;;;;;;4956005;28;20040;-74
2023/10/27 10:15:32;;;;;;;114.60;107.32;;;14.20;99.90;;;;;;4955421;28;20035;-74
2023/10/27 10:17:59;;;;;;;108.15;101.20;;;14.20;99.90;;;;;;4956102;29;20054;-74
2023/10/27 10:20:52;;;;;;;112.05;104.70;;;14.20;99.90;;;;;;4956094;28;20038;-74
2023/10/27 10:23:18;;;;;;;102.75;95.75;;;14.20;99.90;;;;;;4957438;28;20027;-74
2023/10/27 10:25:55;;;;;;;95.93;89.38;;;14.20;99.90;;;;;;4957630;28;20033;-74
2023/10/27 10:28:23;;;;;;;77.43;71.75;;;14.20;99.90;;;;;;4970653;28;20042;-74
2023/10/27 10:31:11;;;;;;;93.78;87.65;;;14.30;99.90;;;;;;4960583;28;20039;-74
2023/10/27 10:33:37;;;;;;;98.32;91.30;;;14.30;99.90;;;;;;4975039;28;20026;-74
2023/10/27 10:36:18;;;;;;;115.40;107.40;;;14.30;99.90;;;;;;4966938;28;20499;-73
2023/10/27 10:38:57;;;;;;;100.80;94.15;;;14.20;99.90;;;;;;4955745;28;20027;-74
2023/10/27 10:41:59;;;;;;;85.75;79.93;;;14.20;99.90;;;;;;4955620;28;21619;-74
2023/10/27 10:44:26;;;;;;;84.68;78.68;;;14.10;99.90;;;;;;4972646;28;20111;-74
2023/10/27 10:46:53;;;;;;;67.00;62.25;;;14.20;99.90;;;;;;4972183;28;20046;-74
2023/10/27 10:49:26;;;;;;;81.72;76.35;;;14.20;99.90;;;;;;4974291;28;20030;-74
2023/10/27 10:51:53;;;;;;;73.07;67.53;;;14.20;99.90;;;;;;4968620;28;20055;-74
2023/10/27 10:54:25;;;;;;;88.72;82.07;;;14.10;99.90;;;;;;4966772;28;20484;-74
2023/10/27 10:57:02;;;;;;;94.13;87.65;;;14.10;99.90;;;;;;4971496;28;20039;-74
2023/10/27 10:59:28;;;;;;;79.60;73.53;;;14.10;99.90;;;;;;4986217;28;20023;-73
2023/10/27 11:01:56;;;;;;;89.70;83.63;;;14.10;99.90;;;;;;4962763;28;20039;-74
2023/10/27 11:04:29;;;;;;;81.55;75.90;;;14.10;99.90;;;;;;4967385;28;20035;-73
2023/10/27 11:07:02;;;;;;;79.72;74.18;;;14.10;99.90;;;;;;4961929;28;20035;-74
2023/10/27 11:09:28;;;;;;;79.55;73.97;;;14.10;99.90;;;;;;4962820;28;20034;-74
2023/10/27 11:11:55;;;;;;;78.13;73.05;;;14.20;99.90;;;;;;4963025;28;20491;-73
2023/10/27 11:14:21;;;;;;;82.60;76.88;;;14.20;99.90;;;;;;4963111;28;20046;-73
2023/10/27 11:16:55;;;;;;;92.05;86.03;;;14.20;99.90;;;;;;4967208;28;20054;-73
2023/10/27 11:19:22;;;;;;;96.22;90.30;;;14.10;99.90;;;;;;4964687;28;20026;-73
2023/10/27 11:21:51;;;;;;;90.65;84.90;;;14.00;99.90;;;;;;4964702;28;20543;-73
2023/10/27 11:24:17;;;;;;;67.05;62.20;;;14.00;99.90;;;;;;4964687;28;20030;-73
2023/10/27 11:26:45;;;;;;;85.88;80.32;;;14.00;99.90;;;;;;4963389;28;20042;-73
2023/10/27 11:29:11;;;;;;;93.25;87.55;;;14.00;99.90;;;;;;4969491;28;20033;-74
2023/10/27 11:31:40;;;;;;;79.60;74.95;;;13.90;99.90;;;;;;4964992;28;20047;-73
2023/10/27 11:34:18;;;;;;;86.93;81.78;;;13.80;99.90;;;;;;4968126;28;20038;-73
2023/10/27 11:37:01;;;;;;;78.13;73.38;;;13.70;99.90;;;;;;4967376;28;20047;-72
2023/10/27 11:39:27;;;;;;;82.40;77.20;;;13.60;99.90;;;;;;4957915;28;20027;-73
2023/10/27 11:42:01;;;;;;;102.57;96.40;;;13.60;99.90;;;;;;4964832;28;20038;-73
2023/10/27 11:44:27;;;;;;;80.13;75.15;;;13.60;99.90;;;;;;4962385;28;20027;-73
2023/10/27 11:46:57;;;;;;;72.35;67.72;;;13.60;99.90;;;;;;4967477;28;20026;-68
2023/10/27 11:49:24;;;;;;;77.82;72.30;;;13.60;99.90;;;;;;4948885;28;20061;-70
2023/10/27 11:51:52;;;;;;;83.68;78.85;;;13.60;99.90;;;;;;4964947;28;20027;-74
2023/10/27 11:54:18;;;;;;;67.57;62.45;;;13.60;99.90;;;;;;4969992;28;20035;-68
2023/10/27 11:56:44;;;;;;;67.05;62.80;;;13.60;99.90;;;;;;4967581;28;20050;-73
2023/10/27 11:59:11;;;;;;;74.00;69.22;;;13.70;99.90;;;;;;4969350;28;20079;-74
2023/10/27 12:01:37;;;;;;;73.57;68.60;;;13.70;99.90;;;;;;4967863;28;20035;-74
2023/10/27 12:04:12;;;;;;;84.50;79.10;;;13.70;99.90;;;;;;4953057;29;20030;-74
2023/10/27 12:06:39;;;;;;;85.47;80.03;;;13.70;99.90;;;;;;4960605;28;20034;-74
2023/10/27 12:09:05;;;;;;;82.50;77.70;;;13.80;99.90;;;;;;4954130;28;20035;-74
2023/10/27 12:11:31;;;;;;;80.75;75.90;;;13.80;99.90;;;;;;4952374;28;20044;-74
2023/10/27 12:13:58;;;;;;;82.75;78.03;;;13.80;99.90;;;;;;4954195;29;20023;-74
2023/10/27 12:16:24;;;;;;;73.38;68.60;;;13.80;99.90;;;;;;4962716;28;20054;-74
2023/10/27 12:18:50;;;;;;;84.15;78.72;;;13.80;99.90;;;;;;4973616;28;20027;-74
2023/10/27 12:21:16;;;;;;;87.85;82.45;;;13.70;99.90;;;;;;4964790;28;20042;-74
2023/10/27 12:23:43;;;;;;;73.70;69.15;;;13.70;99.90;;;;;;4954334;29;20358;-74
2023/10/27 12:26:09;;;;;;;76.20;71.70;;;13.70;99.90;;;;;;4960379;28;20375;-74